Time;durP1;ratioP1;P1;durP2;ratioP2;P2;SDS_P1;SDS_P2;PMS_P1;PMS_P2;Temp;Humidity;BMP_temperature;BMP_pressure;BME280_temperature;BME280_humidity;BME280_pressure;Samples;Min_cycle;Max_cycle;Signal;HPM_P1;HPM_P2
2023/10/25 00:00:59;;;;;;;8.13;5.50;;;10.20;99.90;;;;;;5028420;28;20037;-66
2023/10/25 00:03:30;;;;;;;5.82;5.22;;;10.20;99.90;;;;;;5026640;28;20041;-66
2023/10/25 00:05:57;;;;;;;6.53;5.30;;;10.20;99.90;;;;;;5017280;28;20044;-66
2023/10/25 00:08:29;;;;;;;5.90;5.30;;;10.20;99.90;;;;;;5025903;28;20046;-66
2023/10/25 00:11:03;;;;;;;5.95;5.35;;;10.20;99.90;;;;;;5024254;28;20048;-65
2023/10/25 00:13:36;;;;;;;6.15;5.32;;;10.20;99.90;;;;;;5029925;28;20105;-65
2023/10/25 00:16:07;;;;;;;8.13;5.93;;;10.20;99.90;;;;;;5022537;28;20041;-65
2023/10/25 00:18:39;;;;;;;6.25;5.50;;;10.20;99.90;;;;;;5024006;28;20052;-64
2023/10/25 00:21:11;;;;;;;7.00;5.63;;;10.30;99.90;;;;;;5017545;28;20053;-64
2023/10/25 00:23:43;;;;;;;6.95;5.72;;;10.20;99.90;;;;;;5028269;28;20045;-65
2023/10/25 00:26:14;;;;;;;6.72;5.65;;;10.20;99.90;;;;;;5011496;28;20069;-64
2023/10/25 00:28:51;;;;;;;6.40;5.28;;;10.20;99.90;;;;;;5027874;28;20422;-64
2023/10/25 00:31:18;;;;;;;5.32;4.82;;;10.10;99.90;;;;;;5009367;28;20057;-65
2023/10/25 00:33:45;;;;;;;6.75;5.10;;;10.20;99.90;;;;;;5010532;28;20061;-65
2023/10/25 00:36:16;;;;;;;8.15;5.55;;;10.10;99.90;;;;;;5010824;28;20061;-64
2023/10/25 00:38:48;;;;;;;6.28;5.22;;;10.10;99.90;;;;;;5016191;28;20058;-65
2023/10/25 00:41:20;;;;;;;6.85;4.75;;;10.10;99.90;;;;;;5023107;28;20034;-65
2023/10/25 00:43:53;;;;;;;5.28;4.38;;;10.10;99.90;;;;;;5019405;28;20466;-65
2023/10/25 00:46:26;;;;;;;5.97;4.63;;;10.00;99.90;;;;;;5029614;28;20080;-65
2023/10/25 00:49:00;;;;;;;7.00;4.88;;;10.00;99.90;;;;;;5015573;28;20121;-65
2023/10/25 00:51:32;;;;;;;;;;;10.00;99.90;;;;;;5028066;28;20108;-64
2023/10/25 00:54:05;;;;;;;5.60;4.07;;;10.10;99.90;;;;;;5009488;28;19922;-65
2023/10/25 00:56:33;;;;;;;6.75;4.38;;;10.10;99.90;;;;;;5014164;28;20088;-65
2023/10/25 00:59:06;;;;;;;5.03;4.53;;;10.10;99.90;;;;;;5026222;28;20060;-65
2023/10/25 01:01:40;;;;;;;5.88;5.25;;;10.10;99.90;;;;;;5045218;28;20056;-65
2023/10/25 01:04:12;;;;;;;5.55;4.80;;;10.10;99.90;;;;;;5028553;28;20044;-65
2023/10/25 01:06:44;;;;;;;7.25;5.45;;;10.10;99.90;;;;;;5024893;28;20609;-65
2023/10/25 01:09:16;;;;;;;7.88;5.32;;;10.00;99.90;;;;;;5023260;28;20434;-65
2023/10/25 01:11:48;;;;;;;5.32;4.70;;;10.00;99.90;;;;;;5011647;28;20050;-65
2023/10/25 01:14:20;;;;;;;6.35;5.32;;;9.90;99.90;;;;;;5027699;28;20045;-65
2023/10/25 01:16:52;;;;;;;6.97;5.47;;;9.80;99.90;;;;;;5020805;28;20048;-65
2023/10/25 01:19:19;;;;;;;5.60;4.85;;;9.80;99.90;;;;;;5021196;28;20038;-65
2023/10/25 01:21:51;;;;;;;7.20;5.65;;;9.80;99.90;;;;;;4999898;28;20503;-65
2023/10/25 01:24:23;;;;;;;5.95;5.28;;;9.80;99.90;;;;;;5026793;28;20042;-65
2023/10/25 01:26:57;;;;;;;;;;;9.80;99.90;;;;;;5026820;28;20041;-65
2023/10/25 01:29:28;;;;;;;6.20;5.15;;;9.90;99.90;;;;;;5010277;28;19960;-65
2023/10/25 01:32:00;;;;;;;5.53;4.97;;;9.80;99.90;;;;;;5025542;28;20522;-65
2023/10/25 01:34:32;;;;;;;7.13;4.82;;;9.80;99.90;;;;;;5029030;28;20068;-66
2023/10/25 01:37:04;;;;;;;7.63;5.43;;;9.90;99.90;;;;;;5025030;28;20055;-65
2023/10/25 01:39:30;;;;;;;7.03;5.65;;;9.90;99.90;;;;;;5028091;28;20037;-65
2023/10/25 01:42:03;;;;;;;7.07;6.03;;;9.90;99.90;;;;;;5030295;28;20498;-65
2023/10/25 01:44:35;;;;;;;6.55;5.20;;;9.90;99.90;;;;;;5027214;28;20417;-65
2023/10/25 01:47:07;;;;;;;6.32;5.07;;;9.80;99.90;;;;;;5032623;28;20052;-65
2023/10/25 01:49:39;;;;;;;6.65;5.10;;;9.80;99.90;;;;;;5019166;28;20579;-65
2023/10/25 01:52:06;;;;;;;6.03;5.03;;;9.80;99.90;;;;;;5028405;28;20051;-65
2023/10/25 01:54:40;;;;;;;6.95;5.45;;;9.80;99.90;;;;;;5021384;28;20042;-65
2023/10/25 01:57:15;;;;;;;;;;;9.80;99.90;;;;;;5012657;28;20131;-65
2023/10/25 01:59:47;;;;;;;6.97;5.07;;;9.70;99.90;;;;;;5010679;28;20385;-65
2023/10/25 02:02:19;;;;;;;5.13;4.55;;;9.70;99.90;;;;;;5022601;28;20045;-66
2023/10/25 02:04:51;;;;;;;6.95;5.32;;;9.70;99.90;;;;;;5018553;28;20050;-66
2023/10/25 02:07:22;;;;;;;8.25;5.53;;;9.70;99.90;;;;;;5041400;28;20073;-66
2023/10/25 02:09:54;;;;;;;5.53;4.93;;;9.70;99.90;;;;;;5021953;28;20042;-66
2023/10/25 02:12:26;;;;;;;6.22;5.20;;;9.60;99.90;;;;;;5017014;28;20509;-65
2023/10/25 02:14:53;;;;;;;7.70;4.40;;;9.60;99.90;;;;;;5026887;28;20076;-65
2023/10/25 02:17:25;;;;;;;5.47;4.68;;;9.60;99.90;;;;;;5017393;28;20052;-65
2023/10/25 02:19:57;;;;;;;6.07;4.60;;;9.50;99.90;;;;;;5019960;28;20049;-65
2023/10/25 02:22:29;;;;;;;5.60;4.63;;;9.50;99.90;;;;;;5016991;28;20129;-66
2023/10/25 02:25:01;;;;;;;8.05;4.82;;;9.50;99.90;;;;;;5008142;28;20052;-66
2023/10/25 02:27:33;;;;;;;5.47;4.90;;;9.50;99.90;;;;;;5025795;28;20045;-65
2023/10/25 02:30:05;;;;;;;5.53;4.95;;;9.40;99.90;;;;;;5021649;28;20414;-66
2023/10/25 02:32:37;;;;;;;5.93;4.70;;;9.40;99.90;;;;;;5008542;28;20066;-65
2023/10/25 02:35:09;;;;;;;5.93;5.05;;;9.30;99.90;;;;;;5025957;28;20449;-67
2023/10/25 02:37:41;;;;;;;5.10;4.57;;;9.30;99.90;;;;;;5030941;28;20072;-66
2023/10/25 02:40:13;;;;;;;5.25;4.72;;;9.20;99.90;;;;;;5025279;28;20044;-66
2023/10/25 02:42:47;;;;;;;5.47;4.75;;;9.20;99.90;;;;;;5027516;28;20120;-66
2023/10/25 02:45:14;;;;;;;5.88;4.45;;;9.20;99.90;;;;;;5025798;28;20688;-66
2023/10/25 02:47:46;;;;;;;7.15;4.82;;;9.20;99.90;;;;;;5034964;28;20042;-66
2023/10/25 02:50:18;;;;;;;4.65;4.03;;;9.20;99.90;;;;;;5019306;28;20527;-66
2023/10/25 02:52:49;;;;;;;5.35;4.50;;;9.20;99.90;;;;;;5021973;28;20045;-66
2023/10/25 02:55:22;;;;;;;6.13;4.65;;;9.20;99.90;;;;;;5019011;28;20049;-66
2023/10/25 02:57:49;;;;;;;6.05;4.93;;;9.20;99.90;;;;;;5043959;28;20045;-66
2023/10/25 03:00:21;;;;;;;6.50;4.47;;;9.20;99.90;;;;;;5026418;28;20050;-66
2023/10/25 03:02:47;;;;;;;5.57;4.47;;;9.10;99.90;;;;;;5017710;28;20092;-65
2023/10/25 03:05:19;;;;;;;7.95;5.15;;;9.20;99.90;;;;;;5012610;28;20061;-66
2023/10/25 03:07:51;;;;;;;4.70;4.20;;;9.30;99.90;;;;;;5016271;28;20050;-65
2023/10/25 03:10:20;;;;;;;5.22;4.10;;;9.30;99.90;;;;;;5014036;28;20058;-66
2023/10/25 03:12:52;;;;;;;4.63;4.10;;;9.30;99.90;;;;;;5012579;28;20057;-66
2023/10/25 03:15:24;;;;;;;7.55;4.50;;;9.20;99.90;;;;;;5023172;28;20413;-66
2023/10/25 03:17:56;;;;;;;5.18;4.50;;;9.10;99.90;;;;;;5024648;28;20050;-66
2023/10/25 03:20:28;;;;;;;5.75;4.72;;;9.10;99.90;;;;;;5021060;28;20045;-66
2023/10/25 03:23:00;;;;;;;5.97;4.32;;;9.00;99.90;;;;;;5033387;28;20048;-66
2023/10/25 03:25:27;;;;;;;5.38;4.22;;;9.00;99.90;;;;;;5030144;28;20085;-66
2023/10/25 03:27:59;;;;;;;6.35;4.63;;;8.90;99.90;;;;;;5016861;28;20502;-66
2023/10/25 03:30:32;;;;;;;5.18;4.43;;;8.90;99.90;;;;;;5046076;28;20041;-66
2023/10/25 03:33:04;;;;;;;5.97;4.95;;;9.00;99.90;;;;;;5031365;28;20408;-66
2023/10/25 03:35:36;;;;;;;5.05;4.50;;;8.90;99.90;;;;;;5031746;28;20045;-66
2023/10/25 03:38:02;;;;;;;5.00;4.40;;;9.00;99.90;;;;;;5017316;28;20045;-66
2023/10/25 03:40:29;;;;;;;6.20;5.22;;;9.00;99.90;;;;;;5029066;28;20044;-65
2023/10/25 03:43:01;;;;;;;8.68;6.00;;;9.10;99.90;;;;;;5030097;28;20070;-66
2023/10/25 03:45:28;;;;;;;7.10;5.80;;;9.10;99.90;;;;;;5030488;28;20044;-66
2023/10/25 03:48:00;;;;;;;7.22;5.18;;;9.00;99.90;;;;;;5003584;28;20033;-66
2023/10/25 03:50:32;;;;;;;8.73;5.35;;;9.00;99.90;;;;;;5022064;28;20046;-66
2023/10/25 03:53:04;;;;;;;6.45;5.35;;;9.00;99.90;;;;;;5023411;28;20037;-66
2023/10/25 03:55:31;;;;;;;6.28;5.50;;;8.90;99.90;;;;;;5026253;28;20144;-66
2023/10/25 03:57:57;;;;;;;7.10;4.90;;;8.90;99.90;;;;;;5028034;28;20041;-66
2023/10/25 04:00:29;;;;;;;5.65;5.15;;;8.90;99.90;;;;;;5028261;28;20041;-66
2023/10/25 04:03:01;;;;;;;8.15;5.65;;;8.90;99.90;;;;;;5019586;28;20578;-65
2023/10/25 04:05:28;;;;;;;7.30;5.72;;;8.90;99.90;;;;;;5012387;28;20041;-65
2023/10/25 04:08:00;;;;;;;7.78;6.50;;;8.80;99.90;;;;;;5010762;28;20042;-66
2023/10/25 04:10:31;;;;;;;7.10;6.15;;;8.80;99.90;;;;;;5016008;28;20132;-65
2023/10/25 04:13:03;;;;;;;6.30;5.45;;;8.80;99.90;;;;;;5028723;28;20034;-66
2023/10/25 04:15:35;;;;;;;6.75;5.80;;;8.70;99.90;;;;;;5016372;28;20038;-66
2023/10/25 04:18:02;;;;;;;6.82;5.90;;;8.70;99.90;;;;;;5019873;28;20512;-66
2023/10/25 04:20:32;;;;;;;6.75;5.60;;;8.70;99.90;;;;;;5019894;28;20057;-67
2023/10/25 04:23:04;;;;;;;6.13;5.53;;;8.60;99.90;;;;;;5034121;28;20129;-66
2023/10/25 04:25:36;;;;;;;6.82;5.60;;;8.50;99.90;;;;;;5027960;28;20069;-66
2023/10/25 04:28:08;;;;;;;7.30;5.45;;;8.50;99.90;;;;;;5024279;28;20124;-66
2023/10/25 04:30:35;;;;;;;6.32;5.28;;;8.50;99.90;;;;;;5016430;28;20038;-66
2023/10/25 04:33:02;;;;;;;8.07;5.95;;;8.40;99.90;;;;;;5018830;28;20577;-66
2023/10/25 04:35:34;;;;;;;7.43;6.13;;;8.40;99.90;;;;;;5011515;28;20054;-66
2023/10/25 04:38:06;;;;;;;6.25;5.10;;;8.30;99.90;;;;;;5018430;28;20030;-67
2023/10/25 04:40:38;;;;;;;5.47;4.95;;;8.30;99.90;;;;;;5020898;28;20540;-67
2023/10/25 04:43:10;;;;;;;5.78;5.18;;;8.30;99.90;;;;;;5009241;28;20038;-67
2023/10/25 04:45:42;;;;;;;6.10;5.50;;;8.30;99.90;;;;;;5016701;28;20048;-66
2023/10/25 04:48:14;;;;;;;6.13;5.53;;;8.30;99.90;;;;;;5017144;28;20713;-66
2023/10/25 04:50:41;;;;;;;6.75;5.80;;;8.30;99.90;;;;;;5014946;28;20425;-66
2023/10/25 04:53:13;;;;;;;6.63;5.40;;;8.20;99.90;;;;;;5021300;28;20038;-66
2023/10/25 04:55:45;;;;;;;8.45;6.65;;;8.10;99.90;;;;;;5013517;28;20049;-66
2023/10/25 04:58:18;;;;;;;6.40;5.28;;;8.10;99.90;;;;;;5020782;28;20057;-66
2023/10/25 05:00:50;;;;;;;6.05;5.32;;;8.10;99.90;;;;;;5013401;28;20040;-66
2023/10/25 05:03:23;;;;;;;5.38;4.82;;;8.10;99.90;;;;;;5025866;28;20434;-66
2023/10/25 05:05:49;;;;;;;6.25;4.95;;;8.10;99.90;;;;;;5012669;28;20037;-66
2023/10/25 05:08:22;;;;;;;4.45;4.05;;;8.10;99.90;;;;;;4992027;28;20150;-66
2023/10/25 05:10:55;;;;;;;5.15;4.30;;;8.10;99.90;;;;;;5009724;28;20085;-66
2023/10/25 05:13:27;;;;;;;5.30;4.38;;;8.10;99.90;;;;;;5021095;28;20050;-66
2023/10/25 05:15:54;;;;;;;5.25;4.32;;;8.10;99.90;;;;;;5018181;28;20045;-66
2023/10/25 05:18:21;;;;;;;6.70;5.07;;;8.10;99.90;;;;;;5022778;28;20417;-66
2023/10/25 05:21:01;;;;;;;8.23;6.85;;;8.10;99.90;;;;;;5016156;28;20034;-66
2023/10/25 05:23:34;;;;;;;7.57;6.57;;;8.10;99.90;;;;;;5016350;28;20044;-66
2023/10/25 05:26:05;;;;;;;10.48;6.70;;;8.10;99.90;;;;;;5019538;28;20037;-66
2023/10/25 05:28:37;;;;;;;6.30;5.13;;;8.10;99.90;;;;;;5023387;28;20044;-66
2023/10/25 05:31:16;;;;;;;6.90;5.85;;;8.10;99.90;;;;;;5027548;28;20151;-66
2023/10/25 05:33:47;;;;;;;7.00;5.28;;;8.10;99.90;;;;;;5022824;28;20042;-66
2023/10/25 05:36:19;;;;;;;6.00;5.40;;;8.10;99.90;;;;;;5015873;28;20044;-66
2023/10/25 05:38:52;;;;;;;5.05;4.35;;;8.10;99.90;;;;;;5028670;28;20429;-66
2023/10/25 05:41:27;;;;;;;6.25;4.75;;;8.10;99.90;;;;;;5027967;28;20115;-67
2023/10/25 05:44:06;;;;;;;5.82;4.45;;;8.10;99.90;;;;;;5011003;28;20053;-66
2023/10/25 05:46:38;;;;;;;4.65;4.07;;;8.00;99.90;;;;;;5014401;28;20395;-66
2023/10/25 05:49:10;;;;;;;5.35;4.53;;;8.00;99.90;;;;;;5020459;28;20041;-66
2023/10/25 05:51:43;;;;;;;5.55;4.63;;;8.00;99.90;;;;;;5018700;28;20129;-66
2023/10/25 05:54:15;;;;;;;5.57;5.07;;;8.00;99.90;;;;;;5004113;28;20525;-66
2023/10/25 05:56:47;;;;;;;6.72;5.10;;;8.00;99.90;;;;;;5022743;28;20505;-66
2023/10/25 05:59:19;;;;;;;6.18;4.97;;;7.90;99.90;;;;;;5022465;28;20405;-66
2023/10/25 06:02:11;;;;;;;5.18;4.65;;;7.80;99.90;;;;;;5012761;28;20050;-66
2023/10/25 06:04:44;;;;;;;5.28;4.70;;;7.80;99.90;;;;;;5025153;28;20065;-66
2023/10/25 06:07:16;;;;;;;5.63;5.13;;;7.80;99.90;;;;;;5027555;28;20052;-66
2023/10/25 06:09:49;;;;;;;5.00;4.50;;;7.80;99.90;;;;;;5029642;28;20437;-66
2023/10/25 06:12:16;;;;;;;5.47;4.97;;;7.80;99.90;;;;;;5008732;28;20034;-66
2023/10/25 06:14:48;;;;;;;9.23;6.20;;;7.80;99.90;;;;;;5016486;28;20049;-66
2023/10/25 06:17:15;;;;;;;8.07;6.55;;;7.80;99.90;;;;;;5019068;28;20091;-66
2023/10/25 06:19:42;;;;;;;10.60;7.93;;;7.80;99.90;;;;;;5019735;28;20537;-66
2023/10/25 06:22:14;;;;;;;10.13;7.72;;;7.80;99.90;;;;;;5017603;28;20038;-66
2023/10/25 06:24:41;;;;;;;9.80;7.10;;;7.80;99.90;;;;;;5020784;28;20478;-64
2023/10/25 06:27:08;;;;;;;11.93;8.43;;;7.80;99.90;;;;;;5024998;28;20048;-66
2023/10/25 06:29:40;;;;;;;10.45;8.43;;;7.80;99.90;;;;;;5028866;28;20409;-66
2023/10/25 06:32:07;;;;;;;11.52;7.63;;;7.80;99.90;;;;;;5020815;28;20046;-66
2023/10/25 06:34:39;;;;;;;10.02;8.05;;;7.80;99.90;;;;;;5027556;28;20041;-66
2023/10/25 06:37:11;;;;;;;7.70;6.72;;;7.70;99.90;;;;;;5024913;28;20176;-65
2023/10/25 06:39:38;;;;;;;8.35;7.28;;;7.70;99.90;;;;;;5017612;28;20037;-66
2023/10/25 06:42:11;;;;;;;8.35;7.45;;;7.70;99.90;;;;;;5016147;28;20409;-65
2023/10/25 06:44:38;;;;;;;7.75;6.80;;;7.70;99.90;;;;;;5027753;28;20034;-66
2023/10/25 06:47:08;;;;;;;16.60;11.25;;;7.70;99.90;;;;;;5030291;28;20041;-66
2023/10/25 06:49:36;;;;;;;24.70;11.30;;;7.80;99.90;;;;;;5020992;28;20056;-66
2023/10/25 06:52:03;;;;;;;15.70;8.68;;;7.80;99.90;;;;;;5018038;28;20056;-66
2023/10/25 06:54:35;;;;;;;16.77;9.30;;;7.70;99.90;;;;;;5023694;28;20053;-66
2023/10/25 06:57:08;;;;;;;14.43;8.00;;;7.70;99.90;;;;;;5024722;28;20046;-66
2023/10/25 06:59:41;;;;;;;13.93;7.45;;;7.70;99.90;;;;;;5009150;28;20530;-66
2023/10/25 07:02:28;;;;;;;12.88;8.48;;;7.60;99.90;;;;;;5020901;28;20042;-66
2023/10/25 07:05:06;;;;;;;12.93;8.35;;;7.60;99.90;;;;;;5012683;28;20053;-66
2023/10/25 07:07:34;;;;;;;8.32;6.63;;;7.60;99.90;;;;;;5016242;28;20050;-66
2023/10/25 07:10:11;;;;;;;9.13;6.95;;;7.60;99.90;;;;;;5032070;28;20045;-67
2023/10/25 07:12:43;;;;;;;9.40;6.68;;;7.70;99.90;;;;;;5023762;28;20046;-66
2023/10/25 07:15:16;;;;;;;10.15;6.47;;;7.70;99.90;;;;;;5030998;28;20111;-66
2023/10/25 07:17:44;;;;;;;8.20;5.88;;;7.80;99.90;;;;;;5025946;28;20132;-66
2023/10/25 07:20:16;;;;;;;7.90;6.05;;;7.80;99.90;;;;;;5029905;28;20051;-66
2023/10/25 07:22:49;;;;;;;9.73;6.38;;;7.90;99.90;;;;;;5024709;28;20056;-66
2023/10/25 07:25:16;;;;;;;8.23;6.90;;;8.00;99.90;;;;;;5026481;28;20034;-67
2023/10/25 07:27:48;;;;;;;9.32;6.40;;;8.00;99.90;;;;;;5028126;28;20046;-67
2023/10/25 07:30:18;;;;;;;8.25;4.45;;;8.10;99.90;;;;;;5013957;28;20561;-69
2023/10/25 07:32:51;;;;;;;4.20;3.60;;;8.20;99.90;;;;;;5011768;28;20521;-66
2023/10/25 07:35:23;;;;;;;4.00;3.60;;;8.30;99.90;;;;;;5020559;28;20046;-66
2023/10/25 07:37:50;;;;;;;4.85;3.90;;;8.40;99.90;;;;;;5016181;28;20045;-66
2023/10/25 07:40:22;;;;;;;4.75;3.60;;;8.50;99.90;;;;;;5015027;28;20438;-66
2023/10/25 07:42:54;;;;;;;4.63;3.65;;;8.60;99.90;;;;;;5013547;28;20042;-66
2023/10/25 07:45:25;;;;;;;5.65;4.53;;;8.70;99.90;;;;;;5024951;28;20133;-66
2023/10/25 07:47:57;;;;;;;4.70;3.58;;;8.80;99.90;;;;;;5019035;28;20124;-66
2023/10/25 07:50:31;;;;;;;5.05;3.50;;;8.90;99.90;;;;;;5000074;28;21017;-67
2023/10/25 07:53:03;;;;;;;4.80;4.07;;;9.00;99.90;;;;;;5037524;28;20061;-65
2023/10/25 07:55:38;;;;;;;5.15;4.57;;;9.00;99.90;;;;;;5022056;28;20120;-66
2023/10/25 07:58:07;;;;;;;6.15;4.65;;;9.10;99.90;;;;;;5021473;28;20128;-66
2023/10/25 08:00:39;;;;;;;8.43;4.72;;;9.10;99.90;;;;;;5029068;28;20124;-66
2023/10/25 08:03:06;;;;;;;5.68;5.00;;;9.10;99.90;;;;;;5026115;28;20033;-66
2023/10/25 08:05:38;;;;;;;4.53;3.53;;;9.10;99.90;;;;;;5026754;28;20052;-66
2023/10/25 08:08:05;;;;;;;5.47;3.95;;;9.20;99.90;;;;;;5020588;28;20131;-66
2023/10/25 08:10:36;;;;;;;8.57;4.28;;;9.20;99.90;;;;;;5014720;28;20516;-66
2023/10/25 08:13:09;;;;;;;5.30;3.85;;;9.30;99.90;;;;;;5016654;28;20049;-66
2023/10/25 08:15:41;;;;;;;4.45;3.45;;;9.40;99.90;;;;;;5006695;28;20064;-66
2023/10/25 08:18:13;;;;;;;5.78;4.55;;;9.50;99.90;;;;;;5027018;28;20070;-66
2023/10/25 08:20:44;;;;;;;4.28;3.75;;;9.50;99.90;;;;;;5016463;28;20045;-66
2023/10/25 08:23:16;;;;;;;4.65;3.92;;;9.60;99.90;;;;;;5015513;28;20124;-66
2023/10/25 08:25:50;;;;;;;4.47;3.92;;;9.80;99.90;;;;;;5017146;28;20042;-66
2023/10/25 08:28:22;;;;;;;3.22;2.92;;;9.90;99.90;;;;;;5020538;28;20065;-66
2023/10/25 08:30:49;;;;;;;3.67;3.20;;;10.00;99.90;;;;;;5023354;28;20132;-66
2023/10/25 08:33:20;;;;;;;3.30;3.00;;;10.10;99.90;;;;;;5021371;28;20052;-66
2023/10/25 08:36:02;;;;;;;4.50;3.40;;;10.20;99.90;;;;;;5023879;28;20405;-66
2023/10/25 08:38:35;;;;;;;5.88;3.25;;;10.30;99.90;;;;;;5021129;28;20527;-66
2023/10/25 08:41:06;;;;;;;6.47;3.03;;;10.40;99.90;;;;;;5018791;28;20112;-66
2023/10/25 08:43:40;;;;;;;4.55;2.80;;;10.60;99.90;;;;;;5013816;28;20037;-66
2023/10/25 08:46:07;;;;;;;3.63;2.83;;;10.70;99.90;;;;;;5012294;28;20121;-66
2023/10/25 08:48:39;;;;;;;4.05;2.83;;;10.80;99.90;;;;;;5015736;28;20132;-66
2023/10/25 08:51:14;;;;;;;2.30;2.10;;;10.90;99.90;;;;;;5013445;28;20046;-66
2023/10/25 08:53:41;;;;;;;3.53;2.20;;;11.00;99.90;;;;;;5015256;28;20046;-66
2023/10/25 08:56:13;;;;;;;2.88;2.00;;;11.10;99.90;;;;;;5028178;28;20053;-66
2023/10/25 08:58:45;;;;;;;2.83;1.50;;;11.20;99.90;;;;;;5023836;28;20055;-66
2023/10/25 09:01:18;;;;;;;2.08;1.45;;;11.30;99.90;;;;;;5018314;28;20053;-66
2023/10/25 09:03:44;;;;;;;1.70;1.50;;;11.40;99.90;;;;;;5020258;28;20402;-66
2023/10/25 09:06:22;;;;;;;2.72;1.67;;;11.50;99.90;;;;;;5017942;28;20065;-66
2023/10/25 09:08:59;;;;;;;2.05;1.48;;;11.60;99.90;;;;;;5025999;28;20041;-66
2023/10/25 09:11:40;;;;;;;2.22;1.50;;;11.70;99.90;;;;;;5011264;28;20030;-66
2023/10/25 09:14:09;;;;;;;2.17;1.55;;;11.80;99.90;;;;;;5015249;28;20436;-66
2023/10/25 09:16:43;;;;;;;1.48;1.10;;;11.90;99.90;;;;;;5024847;28;20045;-66
2023/10/25 09:19:23;;;;;;;1.58;1.20;;;12.00;99.90;;;;;;5015927;28;20092;-66
2023/10/25 09:21:55;;;;;;;1.15;0.85;;;12.10;99.90;;;;;;5012443;28;20041;-66
2023/10/25 09:24:27;;;;;;;2.65;0.85;;;12.10;99.90;;;;;;5004216;28;20041;-66
2023/10/25 09:27:06;;;;;;;1.15;1.00;;;12.20;99.90;;;;;;5022401;28;20543;-65
2023/10/25 09:29:38;;;;;;;1.10;0.82;;;12.30;99.90;;;;;;5019312;28;20120;-66
2023/10/25 09:32:10;;;;;;;1.48;0.90;;;12.50;99.90;;;;;;5019478;28;20042;-66
2023/10/25 09:34:44;;;;;;;1.75;1.10;;;12.60;99.90;;;;;;5017591;28;20048;-66
2023/10/25 09:37:16;;;;;;;1.27;0.80;;;12.70;99.90;;;;;;5015593;28;20050;-66
2023/10/25 09:39:43;;;;;;;2.47;0.80;;;12.70;99.90;;;;;;5024584;28;20124;-66
2023/10/25 09:42:18;;;;;;;1.25;0.80;;;12.80;99.90;;;;;;5027851;28;20112;-66
2023/10/25 09:44:53;;;;;;;1.90;1.25;;;12.90;99.90;;;;;;5019788;28;20045;-66
2023/10/25 09:47:32;;;;;;;1.95;0.90;;;12.90;99.90;;;;;;5008497;28;20077;-66
2023/10/25 09:50:14;;;;;;;1.88;1.17;;;13.00;99.90;;;;;;5012817;28;20066;-66
2023/10/25 09:52:50;;;;;;;1.10;0.70;;;13.10;99.90;;;;;;5030733;28;20054;-66
2023/10/25 09:55:25;;;;;;;0.80;0.68;;;13.20;99.90;;;;;;5016305;28;20045;-66
2023/10/25 09:57:58;;;;;;;1.02;0.70;;;13.20;99.90;;;;;;5019644;28;20037;-66
2023/10/25 10:00:29;;;;;;;1.35;0.80;;;13.30;99.90;;;;;;5020639;28;20057;-66
2023/10/25 10:03:30;;;;;;;0.98;0.70;;;13.40;99.90;;;;;;5018942;28;20044;-66
2023/10/25 10:06:15;;;;;;;1.15;0.73;;;13.60;99.90;;;;;;5017555;28;20396;-66
2023/10/25 10:08:59;;;;;;;0.95;0.50;;;13.80;99.90;;;;;;5014273;28;20400;-66
2023/10/25 10:11:31;;;;;;;0.90;0.65;;;14.00;99.90;;;;;;5019632;28;20056;-66
2023/10/25 10:14:25;;;;;;;1.15;0.85;;;14.10;99.90;;;;;;5011934;28;20037;-66
2023/10/25 10:17:11;;;;;;;3.13;0.90;;;14.20;99.90;;;;;;5013805;28;20539;-66
2023/10/25 10:19:48;;;;;;;1.55;0.77;;;14.30;99.90;;;;;;5028397;28;20041;-66
2023/10/25 10:22:21;;;;;;;0.70;0.50;;;14.40;99.90;;;;;;5017413;28;20070;-66
2023/10/25 10:24:56;;;;;;;1.58;0.50;;;14.40;99.90;;;;;;5013708;28;20046;-66
2023/10/25 10:27:40;;;;;;;1.10;0.70;;;14.40;99.90;;;;;;5021718;28;20034;-66
2023/10/25 10:30:33;;;;;;;1.75;1.10;;;14.40;99.90;;;;;;5018294;28;20056;-66
2023/10/25 10:33:09;;;;;;;0.80;0.50;;;14.50;99.90;;;;;;5034621;28;20053;-66
2023/10/25 10:35:48;;;;;;;0.38;0.30;;;14.50;99.90;;;;;;5032228;28;20405;-66
2023/10/25 10:38:20;;;;;;;0.90;0.40;;;14.50;99.90;;;;;;5014801;28;20124;-66
2023/10/25 10:41:00;;;;;;;0.52;0.40;;;14.50;99.90;;;;;;5019463;28;20092;-66
2023/10/25 10:43:32;;;;;;;4.03;0.40;;;14.50;99.90;;;;;;5022176;28;20067;-66
2023/10/25 10:46:04;;;;;;;0.45;0.40;;;14.50;99.90;;;;;;5018115;28;20057;-66
2023/10/25 10:48:37;;;;;;;0.77;0.60;;;14.40;99.90;;;;;;5010662;28;20038;-66
2023/10/25 10:51:09;;;;;;;0.65;0.57;;;14.40;99.90;;;;;;5018415;28;20417;-66
2023/10/25 10:53:36;;;;;;;2.83;0.60;;;14.40;99.90;;;;;;5004812;28;20699;-66
2023/10/25 10:56:03;;;;;;;0.50;0.30;;;14.40;99.90;;;;;;5006539;28;20409;-66
2023/10/25 10:58:30;;;;;;;0.50;0.40;;;14.40;99.90;;;;;;5013405;28;20038;-66
2023/10/25 11:01:02;;;;;;;0.75;0.40;;;14.40;99.90;;;;;;5027535;28;20141;-66
2023/10/25 11:03:36;;;;;;;0.60;0.32;;;14.50;99.90;;;;;;5014214;28;20053;-66
2023/10/25 11:06:09;;;;;;;0.73;0.50;;;14.50;99.90;;;;;;5020180;28;20056;-66
2023/10/25 11:08:42;;;;;;;1.83;0.40;;;14.60;99.90;;;;;;5020235;28;20049;-66
2023/10/25 11:11:14;;;;;;;0.52;0.47;;;14.70;99.90;;;;;;5017234;28;20567;-66
2023/10/25 11:13:49;;;;;;;0.70;0.40;;;14.80;99.90;;;;;;5029458;28;20049;-66
2023/10/25 11:16:17;;;;;;;1.73;1.00;;;14.90;99.90;;;;;;5013577;28;20048;-66
2023/10/25 11:18:49;;;;;;;0.40;0.28;;;15.00;99.90;;;;;;5015711;28;20050;-66
2023/10/25 11:21:21;;;;;;;0.65;0.47;;;15.20;99.90;;;;;;5026515;28;20538;-66
2023/10/25 11:23:48;;;;;;;0.32;0.30;;;15.30;99.90;;;;;;5010056;28;20072;-66
2023/10/25 11:26:19;;;;;;;0.75;0.70;;;15.40;99.90;;;;;;5015327;28;20488;-66
2023/10/25 11:28:52;;;;;;;3.10;0.50;;;15.40;99.90;;;;;;5014242;28;20046;-66
2023/10/25 11:31:23;;;;;;;2.50;0.50;;;15.50;99.90;;;;;;5015316;28;20049;-66
2023/10/25 11:33:56;;;;;;;0.30;0.20;;;15.50;99.90;;;;;;5016096;28;20039;-66
2023/10/25 11:36:32;;;;;;;0.30;0.30;;;15.40;99.90;;;;;;5016603;28;20039;-66
2023/10/25 11:39:08;;;;;;;0.80;0.40;;;15.50;99.90;;;;;;5008888;28;20067;-66
2023/10/25 11:41:42;;;;;;;1.55;0.30;;;15.60;99.90;;;;;;5017139;28;20041;-66
2023/10/25 11:44:21;;;;;;;1.85;0.55;;;15.50;99.90;;;;;;5016207;28;20058;-66
2023/10/25 11:46:58;;;;;;;0.68;0.50;;;15.50;99.90;;;;;;5016316;28;20058;-66
2023/10/25 11:49:25;;;;;;;0.60;0.40;;;15.50;99.90;;;;;;5000229;28;20129;-66
2023/10/25 11:51:55;;;;;;;1.08;0.80;;;15.50;99.90;;;;;;5004703;28;20518;-66
2023/10/25 11:54:27;;;;;;;1.63;0.50;;;15.60;99.90;;;;;;5003460;28;20054;-66
2023/10/25 11:56:54;;;;;;;0.70;0.35;;;15.70;99.90;;;;;;5018707;28;20050;-66
2023/10/25 11:59:21;;;;;;;0.50;0.40;;;15.70;99.90;;;;;;5006054;28;20077;-66
2023/10/25 12:01:52;;;;;;;1.45;1.05;;;15.80;99.90;;;;;;5018686;28;20048;-65
2023/10/25 12:04:24;;;;;;;0.50;0.50;;;15.90;99.90;;;;;;5014191;28;20099;-66
2023/10/25 12:06:56;;;;;;;0.60;0.40;;;16.00;99.90;;;;;;5014250;28;20475;-65
2023/10/25 12:09:28;;;;;;;0.60;0.40;;;16.00;99.90;;;;;;5018521;28;20048;-66
2023/10/25 12:12:00;;;;;;;0.40;0.35;;;16.10;99.90;;;;;;5011283;28;20422;-66
2023/10/25 12:14:32;;;;;;;1.10;0.45;;;16.20;99.90;;;;;;5016431;28;20513;-66
2023/10/25 12:17:05;;;;;;;0.50;0.40;;;16.30;99.90;;;;;;5011790;28;20068;-66
2023/10/25 12:19:39;;;;;;;0.47;0.40;;;16.50;99.90;;;;;;5005722;28;20449;-65
2023/10/25 12:22:13;;;;;;;0.90;0.50;;;16.40;99.90;;;;;;5030735;28;20064;-66
2023/10/25 12:24:46;;;;;;;0.55;0.40;;;16.40;99.90;;;;;;5029651;28;20490;-66
2023/10/25 12:27:18;;;;;;;;;;;16.50;99.90;;;;;;5013871;28;20037;-66
2023/10/25 12:29:50;;;;;;;0.88;0.60;;;16.60;99.90;;;;;;5016366;28;19921;-66
2023/10/25 12:32:22;;;;;;;0.40;0.32;;;16.70;99.90;;;;;;5022978;28;20072;-66
2023/10/25 12:34:54;;;;;;;1.08;0.43;;;16.80;99.90;;;;;;5006385;28;20046;-66
2023/10/25 12:37:20;;;;;;;2.17;0.40;;;16.80;99.90;;;;;;5014201;28;20567;-66
2023/10/25 12:39:52;;;;;;;0.95;0.55;;;16.80;99.90;;;;;;5011484;28;20042;-66
2023/10/25 12:42:24;;;;;;;0.63;0.40;;;16.80;99.90;;;;;;5022870;28;20042;-65
2023/10/25 12:44:51;;;;;;;0.45;0.30;;;16.80;99.90;;;;;;5026093;28;20038;-66
2023/10/25 12:47:23;;;;;;;0.88;0.40;;;16.90;99.90;;;;;;5020107;28;20052;-66
2023/10/25 12:49:55;;;;;;;4.65;0.60;;;17.00;99.90;;;;;;5010578;28;20050;-66
2023/10/25 12:52:22;;;;;;;4.90;3.13;;;17.20;99.90;;;;;;5030722;28;20493;-66
2023/10/25 12:54:54;;;;;;;2.25;2.00;;;17.30;99.90;;;;;;5030903;28;20167;-66
2023/10/25 12:57:26;;;;;;;2.88;1.48;;;17.40;99.90;;;;;;5028963;28;20042;-66
2023/10/25 12:59:57;;;;;;;1.15;0.50;;;17.50;99.90;;;;;;5028082;28;20054;-66
2023/10/25 13:02:24;;;;;;;0.77;0.50;;;17.40;99.90;;;;;;5025780;28;20145;-66
2023/10/25 13:04:51;;;;;;;1.52;0.80;;;17.30;99.90;;;;;;5021788;28;20485;-66
2023/10/25 13:07:23;;;;;;;1.60;0.90;;;17.10;99.90;;;;;;5022177;28;20533;-65
2023/10/25 13:09:55;;;;;;;2.63;2.40;;;17.00;99.90;;;;;;5019466;28;20124;-66
2023/10/25 13:12:27;;;;;;;3.05;2.63;;;16.90;99.90;;;;;;5017907;28;20060;-65
2023/10/25 13:14:54;;;;;;;1.63;0.98;;;16.90;99.90;;;;;;5018711;28;20038;-66
2023/10/25 13:17:21;;;;;;;1.05;0.82;;;16.90;99.90;;;;;;5019670;28;20042;-66